Time;durP1;ratioP1;P1;durP2;ratioP2;P2;SDS_P1;SDS_P2;PMS_P1;PMS_P2;Temp;Humidity;BMP_temperature;BMP_pressure;BME280_temperature;BME280_humidity;BME280_pressure;Samples;Min_cycle;Max_cycle;Signal;HPM_P1;HPM_P2
2022/01/17 00:00:16;;;;;;;;;;;21.00;40.70;;;;;;690982;28;794;-78
2022/01/17 00:00:37;;;;;;;;;;;21.00;40.70;;;;;;690724;28;835;-80
2022/01/17 00:00:58;;;;;;;;;;;21.00;40.70;;;;;;691100;28;850;-80
2022/01/17 00:01:18;;;;;;;;;;;21.00;40.70;;;;;;690917;28;1190;-79
2022/01/17 00:01:40;;;;;;;;;;;21.00;40.70;;;;;;690963;28;887;-80
2022/01/17 00:02:01;;;;;;;;;;;21.00;40.70;;;;;;691075;28;908;-80
2022/01/17 00:02:22;;;;;;;;;;;21.00;40.70;;;;;;690954;28;807;-80
2022/01/17 00:02:42;;;;;;;;;;;21.00;40.70;;;;;;691014;28;866;-80
2022/01/17 00:03:03;;;;;;;;;;;21.00;40.70;;;;;;691546;28;905;-81
2022/01/17 00:03:25;;;;;;;;;;;21.00;40.80;;;;;;693925;28;806;-81
2022/01/17 00:03:49;;;;;;;;;;;21.00;40.70;;;;;;693924;28;862;-82
2022/01/17 00:04:10;;;;;;;;;;;21.00;40.70;;;;;;693960;28;869;-81
2022/01/17 00:04:31;;;;;;;;;;;21.00;40.70;;;;;;693965;28;842;-82
2022/01/17 00:04:51;;;;;;;;;;;21.00;40.70;;;;;;693785;28;858;-80
2022/01/17 00:05:12;;;;;;;;;;;21.00;40.70;;;;;;693950;28;787;-83
2022/01/17 00:05:32;;;;;;;;;;;21.00;40.60;;;;;;693919;28;842;-81
2022/01/17 00:05:53;;;;;;;;;;;21.00;40.60;;;;;;693835;28;862;-83
2022/01/17 00:06:14;;;;;;;;;;;21.00;40.60;;;;;;690804;28;1305;-80
2022/01/17 00:06:34;;;;;;;;;;;21.00;40.70;;;;;;691029;28;881;-80
2022/01/17 00:06:55;;;;;;;;;;;21.00;40.60;;;;;;690972;28;874;-82
2022/01/17 00:07:16;;;;;;;;;;;21.00;40.60;;;;;;690869;28;875;-81
2022/01/17 00:07:37;;;;;;;;;;;21.00;40.60;;;;;;690799;28;1665;-82
2022/01/17 00:07:57;;;;;;;;;;;21.00;40.60;;;;;;688040;28;926;-81
2022/01/17 00:08:18;;;;;;;;;;;21.00;40.60;;;;;;685719;28;1245;-82
2022/01/17 00:08:42;;;;;;;;;;;21.00;40.50;;;;;;685583;28;838;-82
2022/01/17 00:09:02;;;;;;;;;;;21.00;40.60;;;;;;685535;28;913;-82
2022/01/17 00:09:23;;;;;;;;;;;21.00;40.50;;;;;;686236;28;921;-81
2022/01/17 00:09:43;;;;;;;;;;;21.00;40.50;;;;;;688944;28;831;-83
2022/01/17 00:10:05;;;;;;;;;;;21.00;40.60;;;;;;691748;28;878;-84
2022/01/17 00:10:26;;;;;;;;;;;21.00;40.60;;;;;;693985;28;842;-81
2022/01/17 00:10:46;;;;;;;;;;;21.00;40.60;;;;;;693868;28;791;-82
2022/01/17 00:11:08;;;;;;;;;;;21.00;40.60;;;;;;693856;28;803;-82
2022/01/17 00:11:28;;;;;;;;;;;21.00;40.70;;;;;;693934;28;779;-82
2022/01/17 00:11:50;;;;;;;;;;;21.00;40.70;;;;;;693920;28;865;-81
2022/01/17 00:12:11;;;;;;;;;;;21.00;40.80;;;;;;693814;28;1666;-81
2022/01/17 00:12:35;;;;;;;;;;;21.00;40.70;;;;;;695397;28;1618;-83
2022/01/17 00:12:58;;;;;;;;;;;21.00;40.80;;;;;;696603;28;894;-82
2022/01/17 00:13:27;;;;;;;;;;;21.00;40.80;;;;;;693581;28;1432;-83
2022/01/17 00:13:48;;;;;;;;;;;21.00;40.90;;;;;;693667;28;916;-81
2022/01/17 00:14:16;;;;;;;;;;;21.00;41.00;;;;;;693529;28;1618;-82
2022/01/17 00:14:40;;;;;;;;;;;21.00;41.00;;;;;;692887;28;1482;-80
2022/01/17 00:15:01;;;;;;;;;;;21.00;41.10;;;;;;693606;28;1489;-82
2022/01/17 00:15:29;;;;;;;;;;;21.00;41.10;;;;;;693616;28;838;-79
2022/01/17 00:15:55;;;;;;;;;;;21.00;41.10;;;;;;693962;28;799;-80
2022/01/17 00:16:20;;;;;;;;;;;21.00;41.20;;;;;;692977;28;1348;-79
2022/01/17 00:17:39;;;;;;;;;;;21.00;41.10;;;;;;706315;23;1599;-80
2022/01/17 00:19:17;;;;;;;;;;;21.00;41.20;;;;;;705104;28;1074;-81
2022/01/17 00:19:43;;;;;;;;;;;21.00;41.20;;;;;;701433;28;1437;-81
2022/01/17 00:20:25;;;;;;;;;;;21.00;41.20;;;;;;702161;28;834;-78
2022/01/17 00:20:46;;;;;;;;;;;21.00;41.10;;;;;;702037;28;834;-80
2022/01/17 00:21:07;;;;;;;;;;;21.00;41.20;;;;;;699514;28;1247;-77
2022/01/17 00:21:31;;;;;;;;;;;21.00;41.10;;;;;;701319;28;854;-80
2022/01/17 00:21:52;;;;;;;;;;;21.00;41.10;;;;;;701934;28;846;-81
2022/01/17 00:22:13;;;;;;;;;;;21.00;41.10;;;;;;701977;28;841;-80
2022/01/17 00:22:34;;;;;;;;;;;21.00;41.10;;;;;;699053;28;1351;-80
2022/01/17 00:22:54;;;;;;;;;;;21.00;41.00;;;;;;700090;28;537;-81
2022/01/17 00:23:15;;;;;;;;;;;21.00;41.00;;;;;;702149;28;778;-79
2022/01/17 00:23:36;;;;;;;;;;;21.00;41.00;;;;;;698991;28;1405;-82
2022/01/17 00:23:56;;;;;;;;;;;21.00;41.00;;;;;;700114;28;794;-81
2022/01/17 00:24:18;;;;;;;;;;;21.00;41.00;;;;;;699416;28;1376;-80
2022/01/17 00:24:54;;;;;;;;;;;21.00;40.90;;;;;;702857;28;836;-81
2022/01/17 00:25:15;;;;;;;;;;;21.00;40.90;;;;;;699363;28;1270;-82
2022/01/17 00:25:35;;;;;;;;;;;21.00;40.90;;;;;;699317;28;865;-80
2022/01/17 00:25:56;;;;;;;;;;;21.00;40.80;;;;;;699452;28;901;-80
2022/01/17 00:26:16;;;;;;;;;;;21.00;40.80;;;;;;698875;28;1255;-81
2022/01/17 00:26:37;;;;;;;;;;;21.00;40.80;;;;;;695968;28;1281;-81
2022/01/17 00:26:57;;;;;;;;;;;21.00;40.80;;;;;;694025;28;815;-81
2022/01/17 00:27:18;;;;;;;;;;;21.00;40.70;;;;;;696404;28;787;-81
2022/01/17 00:27:39;;;;;;;;;;;21.00;40.70;;;;;;696882;28;1578;-80
2022/01/17 00:27:59;;;;;;;;;;;21.00;40.70;;;;;;696441;28;1555;-81
2022/01/17 00:28:20;;;;;;;;;;;21.00;40.70;;;;;;699379;28;1759;-81
2022/01/17 00:28:40;;;;;;;;;;;21.00;40.70;;;;;;699921;28;1640;-81
2022/01/17 00:29:01;;;;;;;;;;;21.00;40.70;;;;;;699233;28;1236;-80
2022/01/17 00:29:22;;;;;;;;;;;21.00;40.70;;;;;;699057;28;1283;-82
2022/01/17 00:29:42;;;;;;;;;;;21.00;40.70;;;;;;698018;28;1213;-79
2022/01/17 00:30:04;;;;;;;;;;;21.00;40.70;;;;;;696529;28;1497;-82
2022/01/17 00:30:24;;;;;;;;;;;21.00;40.70;;;;;;696501;28;822;-79
2022/01/17 00:30:45;;;;;;;;;;;21.00;40.70;;;;;;695980;28;1240;-79
2022/01/17 00:31:06;;;;;;;;;;;21.00;41.80;;;;;;695578;28;1090;-79
2022/01/17 00:31:26;;;;;;;;;;;21.00;40.70;;;;;;697630;28;1361;-79
2022/01/17 00:31:47;;;;;;;;;;;20.90;40.50;;;;;;701804;28;1356;-77
2022/01/17 00:32:10;;;;;;;;;;;21.00;41.70;;;;;;701146;28;1209;-82
2022/01/17 00:32:31;;;;;;;;;;;21.00;40.50;;;;;;700169;28;842;-79
2022/01/17 00:32:52;;;;;;;;;;;21.00;40.60;;;;;;702792;28;894;-81
2022/01/17 00:33:14;;;;;;;;;;;21.00;40.60;;;;;;702251;28;849;-82
2022/01/17 00:33:35;;;;;;;;;;;21.00;40.60;;;;;;704567;28;1905;-80
2022/01/17 00:33:55;;;;;;;;;;;21.00;40.60;;;;;;705619;28;1333;-81
2022/01/17 00:34:16;;;;;;;;;;;20.90;40.50;;;;;;703627;28;929;-82
2022/01/17 00:34:36;;;;;;;;;;;20.90;40.50;;;;;;702406;28;826;-80
2022/01/17 00:34:57;;;;;;;;;;;20.90;40.50;;;;;;702194;28;818;-80
2022/01/17 00:35:25;;;;;;;;;;;20.90;40.60;;;;;;702419;28;960;-79
2022/01/17 00:35:46;;;;;;;;;;;21.00;40.60;;;;;;702683;28;826;-80
2022/01/17 00:36:07;;;;;;;;;;;21.00;40.60;;;;;;699031;28;1362;-78
2022/01/17 00:36:28;;;;;;;;;;;20.90;40.50;;;;;;699592;28;906;-79
2022/01/17 00:36:48;;;;;;;;;;;20.90;40.50;;;;;;699337;28;881;-81
2022/01/17 00:37:09;;;;;;;;;;;20.90;40.50;;;;;;699197;28;861;-81
2022/01/17 00:37:39;;;;;;;;;;;20.90;40.60;;;;;;700791;28;822;-81
2022/01/17 00:38:00;;;;;;;;;;;20.90;40.60;;;;;;702275;28;1572;-81
2022/01/17 00:38:20;;;;;;;;;;;20.90;40.60;;;;;;705322;28;798;-82
2022/01/17 00:38:41;;;;;;;;;;;21.00;40.50;;;;;;704906;28;1670;-81
2022/01/17 00:39:28;;;;;;;;;;;20.90;40.30;;;;;;702765;28;1389;-81
2022/01/17 00:39:59;;;;;;;;;;;20.90;40.40;;;;;;702717;28;1322;-79
2022/01/17 00:40:20;;;;;;;;;;;21.00;40.50;;;;;;702440;28;770;-80
2022/01/17 00:40:41;;;;;;;;;;;21.00;40.50;;;;;;699574;28;830;-79
2022/01/17 00:41:02;;;;;;;;;;;20.90;40.40;;;;;;702580;28;1019;-79
2022/01/17 00:41:38;;;;;;;;;;;21.00;40.50;;;;;;699584;28;1208;-78
2022/01/17 00:42:03;;;;;;;;;;;20.90;40.60;;;;;;698018;28;1225;-80
2022/01/17 00:42:23;;;;;;;;;;;20.90;40.40;;;;;;699917;28;1241;-80
2022/01/17 00:42:44;;;;;;;;;;;20.90;40.50;;;;;;702949;28;636;-80
2022/01/17 00:43:04;;;;;;;;;;;20.90;40.20;;;;;;702599;28;818;-80
2022/01/17 00:43:25;;;;;;;;;;;21.00;40.30;;;;;;699702;28;1370;-81
2022/01/17 00:43:46;;;;;;;;;;;21.00;40.30;;;;;;700436;28;854;-78
2022/01/17 00:44:06;;;;;;;;;;;20.90;41.50;;;;;;700184;28;1287;-81
2022/01/17 00:44:27;;;;;;;;;;;21.00;40.50;;;;;;703631;28;921;-81
2022/01/17 00:44:48;;;;;;;;;;;20.90;40.40;;;;;;702438;28;794;-80
2022/01/17 00:45:12;;;;;;;;;;;21.00;40.40;;;;;;697863;28;1214;-80
2022/01/17 00:45:35;;;;;;;;;;;21.00;40.40;;;;;;699717;28;923;-81
2022/01/17 00:45:56;;;;;;;;;;;20.90;40.40;;;;;;699789;28;818;-78
2022/01/17 00:46:16;;;;;;;;;;;21.00;40.10;;;;;;699789;28;822;-80
2022/01/17 00:46:52;;;;;;;;;;;;;;;;;;;;;
2022/01/17 00:47:16;;;;;;;;;;;21.00;40.50;;;;;;700960;28;925;-82
2022/01/17 00:47:37;;;;;;;;;;;21.00;40.10;;;;;;702955;28;787;-80
2022/01/17 00:48:00;;;;;;;;;;;21.00;40.30;;;;;;702625;28;845;-80
2022/01/17 00:48:20;;;;;;;;;;;20.90;40.10;;;;;;703235;28;854;-79
2022/01/17 00:48:42;;;;;;;;;;;20.90;39.90;;;;;;705541;28;897;-79
2022/01/17 00:49:04;;;;;;;;;;;21.00;40.10;;;;;;701643;28;1736;-80
2022/01/17 00:49:25;;;;;;;;;;;21.00;40.10;;;;;;699759;28;972;-79
2022/01/17 00:49:45;;;;;;;;;;;20.90;39.80;;;;;;696750;28;1392;-80
2022/01/17 00:50:06;;;;;;;;;;;20.90;39.50;;;;;;696846;28;1393;-79
2022/01/17 00:50:28;;;;;;;;;;;20.90;39.70;;;;;;697762;28;818;-80
2022/01/17 00:50:50;;;;;;;;;;;20.90;39.80;;;;;;694930;28;894;-79
2022/01/17 00:51:12;;;;;;;;;;;20.90;39.80;;;;;;697516;28;929;-79
2022/01/17 00:51:47;;;;;;;;;;;20.90;39.70;;;;;;701915;28;1474;-80
2022/01/17 00:52:16;;;;;;;;;;;20.90;39.60;;;;;;703573;28;1529;-79
2022/01/17 00:52:44;;;;;;;;;;;20.90;39.40;;;;;;700840;28;1329;-82
2022/01/17 00:53:05;;;;;;;;;;;20.90;39.80;;;;;;700680;28;1261;-82
2022/01/17 00:53:26;;;;;;;;;;;20.90;40.10;;;;;;701537;28;1963;-80
2022/01/17 00:53:47;;;;;;;;;;;20.90;39.90;;;;;;699635;28;1091;-79
2022/01/17 00:54:07;;;;;;;;;;;20.90;39.90;;;;;;698779;28;1286;-79
2022/01/17 00:54:28;;;;;;;;;;;20.90;40.00;;;;;;698708;28;1210;-78
2022/01/17 00:54:48;;;;;;;;;;;20.90;40.00;;;;;;699635;28;1182;-78
2022/01/17 00:55:09;;;;;;;;;;;20.90;40.10;;;;;;699689;28;857;-80
2022/01/17 00:55:33;;;;;;;;;;;20.90;39.80;;;;;;699839;28;806;-80
2022/01/17 00:55:58;;;;;;;;;;;20.90;39.80;;;;;;701800;28;906;-80
2022/01/17 00:56:22;;;;;;;;;;;20.90;39.60;;;;;;700946;28;1453;-82
2022/01/17 00:56:46;;;;;;;;;;;20.90;39.40;;;;;;702360;28;759;-81
2022/01/17 00:57:06;;;;;;;;;;;20.90;39.80;;;;;;699446;28;1230;-81
2022/01/17 00:57:41;;;;;;;;;;;20.90;39.70;;;;;;700598;28;822;-81
2022/01/17 00:58:09;;;;;;;;;;;20.90;39.80;;;;;;699313;28;1188;-78
2022/01/17 00:58:30;;;;;;;;;;;20.90;39.90;;;;;;696972;28;941;-81
2022/01/17 00:58:51;;;;;;;;;;;20.90;39.70;;;;;;698793;28;1183;-80
2022/01/17 00:59:11;;;;;;;;;;;20.90;39.30;;;;;;696866;28;1298;-81
2022/01/17 00:59:54;;;;;;;;;;;20.90;39.80;;;;;;700140;28;846;-82
2022/01/17 01:00:15;;;;;;;;;;;20.90;39.50;;;;;;697684;28;1301;-81
2022/01/17 01:00:37;;;;;;;;;;;20.90;39.70;;;;;;697167;28;1633;-79
2022/01/17 01:00:58;;;;;;;;;;;20.90;39.80;;;;;;699549;28;1146;-80
2022/01/17 01:01:18;;;;;;;;;;;20.90;39.70;;;;;;699471;28;1190;-79
2022/01/17 01:01:39;;;;;;;;;;;20.90;39.50;;;;;;699584;28;833;-79
2022/01/17 01:02:06;;;;;;;;;;;20.90;39.80;;;;;;697179;28;1206;-79
2022/01/17 01:02:33;;;;;;;;;;;20.90;39.70;;;;;;701050;28;1442;-83
2022/01/17 01:02:54;;;;;;;;;;;20.90;39.80;;;;;;698160;28;1156;-79
2022/01/17 01:03:14;;;;;;;;;;;20.90;39.50;;;;;;693720;28;1281;-81
2022/01/17 01:03:36;;;;;;;;;;;20.90;39.50;;;;;;693945;28;851;-81
2022/01/17 01:03:56;;;;;;;;;;;20.90;39.80;;;;;;696145;28;1206;-81
2022/01/17 01:04:17;;;;;;;;;;;20.90;39.50;;;;;;697721;28;1212;-81
2022/01/17 01:04:37;;;;;;;;;;;20.90;39.50;;;;;;697045;28;1305;-80
2022/01/17 01:04:58;;;;;;;;;;;20.90;39.40;;;;;;699447;28;1221;-81
2022/01/17 01:05:19;;;;;;;;;;;20.90;39.50;;;;;;696443;28;1466;-80
2022/01/17 01:05:40;;;;;;;;;;;20.90;39.50;;;;;;696648;28;1271;-81
2022/01/17 01:06:00;;;;;;;;;;;20.80;39.30;;;;;;696922;28;1229;-79
2022/01/17 01:06:21;;;;;;;;;;;20.90;39.40;;;;;;699146;28;1193;-79
2022/01/17 01:06:41;;;;;;;;;;;20.90;39.30;;;;;;702381;28;904;-79
2022/01/17 01:07:02;;;;;;;;;;;20.90;39.10;;;;;;702584;28;1125;-79
2022/01/17 01:07:22;;;;;;;;;;;20.90;39.10;;;;;;705071;28;797;-79
2022/01/17 01:07:43;;;;;;;;;;;20.90;39.40;;;;;;705188;28;909;-81
2022/01/17 01:08:04;;;;;;;;;;;20.90;39.30;;;;;;704324;28;1247;-81
2022/01/17 01:08:24;;;;;;;;;;;20.90;39.50;;;;;;704862;28;1293;-79
2022/01/17 01:08:45;;;;;;;;;;;20.80;39.20;;;;;;705047;28;976;-81
2022/01/17 01:09:06;;;;;;;;;;;20.90;39.30;;;;;;704878;28;1398;-80
2022/01/17 01:09:31;;;;;;;;;;;20.90;39.20;;;;;;702160;28;1525;-81
2022/01/17 01:10:02;;;;;;;;;;;20.80;38.60;;;;;;701973;28;1201;-81
2022/01/17 01:10:23;;;;;;;;;;;20.80;38.30;;;;;;699217;28;1256;-81
2022/01/17 01:10:43;;;;;;;;;;;20.80;38.30;;;;;;699346;28;1360;-81
2022/01/17 01:11:04;;;;;;;;;;;20.80;38.60;;;;;;699337;28;1197;-81
2022/01/17 01:11:24;;;;;;;;;;;20.80;38.80;;;;;;701883;28;1294;-79
2022/01/17 01:11:45;;;;;;;;;;;20.80;38.90;;;;;;702359;28;865;-81
2022/01/17 01:12:06;;;;;;;;;;;20.80;39.10;;;;;;701942;28;1444;-79
2022/01/17 01:12:26;;;;;;;;;;;20.80;39.10;;;;;;702723;28;885;-80
2022/01/17 01:12:48;;;;;;;;;;;20.80;39.00;;;;;;705320;28;790;-78
2022/01/17 01:13:09;;;;;;;;;;;20.80;39.10;;;;;;705478;28;849;-78
2022/01/17 01:13:31;;;;;;;;;;;20.80;39.20;;;;;;705323;28;1905;-78
2022/01/17 01:13:51;;;;;;;;;;;20.80;39.30;;;;;;705273;28;782;-78
2022/01/17 01:14:12;;;;;;;;;;;20.80;39.10;;;;;;705259;28;952;-79
2022/01/17 01:14:32;;;;;;;;;;;20.80;38.80;;;;;;703868;28;1280;-80
2022/01/17 01:14:53;;;;;;;;;;;20.80;39.10;;;;;;702501;28;810;-81
2022/01/17 01:15:19;;;;;;;;;;;20.80;39.00;;;;;;702456;28;896;-80
2022/01/17 01:16:43;;;;;;;;;;;20.80;38.80;;;;;;702472;28;1778;-81
2022/01/17 01:17:08;;;;;;;;;;;20.80;39.20;;;;;;701226;28;1171;-81
2022/01/17 01:18:37;;;;;;;;;;;20.80;39.30;;;;;;688596;28;1571;-79
2022/01/17 01:19:43;;;;;;;;;;;20.80;39.40;;;;;;691387;28;818;-82
2022/01/17 01:27:55;;;;;;;;;;;20.80;40.50;;;;;;694025;28;608;-84
2022/01/17 01:28:16;;;;;;;;;;;20.80;40.40;;;;;;693885;28;770;-83
2022/01/17 01:28:36;;;;;;;;;;;20.80;40.50;;;;;;693813;28;861;-83
2022/01/17 01:28:57;;;;;;;;;;;20.80;40.50;;;;;;693950;28;972;-83
2022/01/17 01:29:17;;;;;;;;;;;20.80;40.50;;;;;;693996;28;787;-81
2022/01/17 01:29:47;;;;;;;;;;;20.80;40.50;;;;;;693800;28;1328;-82
2022/01/17 01:30:11;;;;;;;;;;;20.70;40.50;;;;;;693815;28;1287;-82
2022/01/17 01:30:34;;;;;;;;;;;20.70;40.40;;;;;;694040;28;1000;-83
2022/01/17 01:30:56;;;;;;;;;;;20.80;40.50;;;;;;694051;28;845;-81
2022/01/17 01:31:18;;;;;;;;;;;20.80;40.50;;;;;;690743;28;1368;-82
2022/01/17 01:31:50;;;;;;;;;;;20.80;40.50;;;;;;691101;28;929;-82
2022/01/17 01:32:12;;;;;;;;;;;20.80;40.50;;;;;;691232;28;866;-80
2022/01/17 01:32:41;;;;;;;;;;;20.70;40.40;;;;;;691303;28;862;-83
2022/01/17 01:33:03;;;;;;;;;;;20.70;40.50;;;;;;688430;28;1626;-82
2022/01/17 01:33:28;;;;;;;;;;;20.80;40.80;;;;;;688996;28;834;-83
2022/01/17 01:33:54;;;;;;;;;;;20.80;40.80;;;;;;688370;28;841;-83
2022/01/17 01:34:16;;;;;;;;;;;20.80;41.00;;;;;;685712;28;1237;-82
2022/01/17 01:34:41;;;;;;;;;;;20.80;40.80;;;;;;685840;28;882;-82
2022/01/17 01:35:08;;;;;;;;;;;20.80;40.80;;;;;;688408;28;1369;-82
2022/01/17 01:35:31;;;;;;;;;;;20.80;40.70;;;;;;688447;28;1242;-83
2022/01/17 01:35:59;;;;;;;;;;;20.80;40.80;;;;;;691098;28;1204;-83
2022/01/17 01:36:27;;;;;;;;;;;20.80;40.80;;;;;;690795;28;1250;-83
2022/01/17 01:36:49;;;;;;;;;;;20.80;40.70;;;;;;687719;28;1439;-82
2022/01/17 01:37:09;;;;;;;;;;;20.80;40.70;;;;;;685707;28;1410;-82
2022/01/17 01:37:30;;;;;;;;;;;20.80;40.70;;;;;;685723;28;752;-82
2022/01/17 01:37:50;;;;;;;;;;;20.80;40.60;;;;;;685800;28;849;-83
2022/01/17 01:38:11;;;;;;;;;;;20.80;40.60;;;;;;687227;28;823;-81
2022/01/17 01:38:32;;;;;;;;;;;20.80;40.60;;;;;;688447;28;1329;-83
2022/01/17 01:38:52;;;;;;;;;;;20.80;40.60;;;;;;691384;28;830;-82
2022/01/17 01:39:17;;;;;;;;;;;20.80;40.40;;;;;;693865;28;905;-82
2022/01/17 01:39:38;;;;;;;;;;;20.80;40.30;;;;;;693771;28;1224;-83
2022/01/17 01:40:02;;;;;;;;;;;20.80;40.40;;;;;;690607;28;1653;-82
2022/01/17 01:40:23;;;;;;;;;;;20.80;40.50;;;;;;691157;28;1530;-84
2022/01/17 01:40:43;;;;;;;;;;;20.80;40.40;;;;;;691151;28;853;-85
2022/01/17 01:41:04;;;;;;;;;;;20.80;40.40;;;;;;691473;28;858;-81
2022/01/17 01:41:24;;;;;;;;;;;20.80;40.40;;;;;;691406;28;1283;-83
2022/01/17 01:41:45;;;;;;;;;;;20.80;40.50;;;;;;691492;28;822;-84
2022/01/17 01:42:14;;;;;;;;;;;20.80;40.50;;;;;;691410;28;798;-82
2022/01/17 01:42:35;;;;;;;;;;;20.80;40.50;;;;;;691545;28;932;-80
2022/01/17 01:42:55;;;;;;;;;;;20.80;40.50;;;;;;688380;28;1264;-81
2022/01/17 01:43:16;;;;;;;;;;;20.80;40.40;;;;;;688547;28;1360;-81
2022/01/17 01:43:37;;;;;;;;;;;20.80;40.30;;;;;;688774;28;791;-83
2022/01/17 01:43:59;;;;;;;;;;;20.80;40.40;;;;;;688796;28;988;-81
2022/01/17 01:44:22;;;;;;;;;;;20.80;40.30;;;;;;688768;28;746;-81
2022/01/17 01:44:56;;;;;;;;;;;20.80;40.30;;;;;;689796;28;1263;-82
2022/01/17 01:45:16;;;;;;;;;;;20.80;40.30;;;;;;693993;28;1240;-83
2022/01/17 01:45:37;;;;;;;;;;;20.80;40.40;;;;;;694235;28;790;-81
2022/01/17 01:46:00;;;;;;;;;;;20.80;40.20;;;;;;694222;28;909;-81
2022/01/17 01:46:23;;;;;;;;;;;20.80;40.20;;;;;;694186;28;900;-79
2022/01/17 01:46:44;;;;;;;;;;;20.80;40.20;;;;;;691529;28;880;-82
2022/01/17 01:47:05;;;;;;;;;;;20.80;40.20;;;;;;692291;28;1115;-83
2022/01/17 01:47:26;;;;;;;;;;;20.80;40.30;;;;;;694166;28;1016;-84
2022/01/17 01:47:47;;;;;;;;;;;20.80;40.20;;;;;;694187;28;786;-82
2022/01/17 01:48:10;;;;;;;;;;;20.80;40.20;;;;;;694054;28;1287;-81
2022/01/17 01:48:32;;;;;;;;;;;20.80;40.20;;;;;;694068;28;1420;-83
2022/01/17 01:48:53;;;;;;;;;;;20.80;40.20;;;;;;691034;28;926;-83
2022/01/17 01:49:15;;;;;;;;;;;20.80;40.20;;;;;;688389;28;937;-84
2022/01/17 01:49:35;;;;;;;;;;;20.80;40.20;;;;;;688466;28;858;-82
2022/01/17 01:49:56;;;;;;;;;;;20.80;40.10;;;;;;684858;28;1008;-82
2022/01/17 01:50:18;;;;;;;;;;;20.80;40.10;;;;;;684075;28;866;-83
2022/01/17 01:50:39;;;;;;;;;;;20.80;40.20;;;;;;686772;28;878;-84
2022/01/17 01:51:00;;;;;;;;;;;20.80;40.10;;;;;;689170;28;1330;-82
2022/01/17 01:51:20;;;;;;;;;;;20.80;40.10;;;;;;691482;28;798;-80
2022/01/17 01:51:41;;;;;;;;;;;20.80;40.10;;;;;;689198;28;803;-81
2022/01/17 01:52:02;;;;;;;;;;;20.80;40.10;;;;;;691377;28;806;-81
2022/01/17 01:52:23;;;;;;;;;;;20.80;40.00;;;;;;691268;28;1617;-84
2022/01/17 01:54:39;;;;;;;;;;;20.80;40.00;;;;;;694255;28;589;-82
2022/01/17 01:55:00;;;;;;;;;;;20.80;40.00;;;;;;694146;28;1263;-83
2022/01/17 01:55:21;;;;;;;;;;;20.80;40.00;;;;;;694154;28;1221;-84
2022/01/17 01:55:42;;;;;;;;;;;20.80;40.00;;;;;;693768;28;1307;-83
2022/01/17 01:56:03;;;;;;;;;;;20.80;40.00;;;;;;694180;28;964;-84
2022/01/17 01:56:23;;;;;;;;;;;20.80;39.90;;;;;;695021;28;1314;-84
2022/01/17 01:56:45;;;;;;;;;;;20.80;40.00;;;;;;694207;28;874;-82
2022/01/17 01:57:06;;;;;;;;;;;20.80;39.90;;;;;;694152;28;1442;-84
2022/01/17 01:57:26;;;;;;;;;;;20.80;39.90;;;;;;694647;28;1294;-81
2022/01/17 01:57:47;;;;;;;;;;;20.80;39.90;;;;;;696882;28;866;-82
2022/01/17 01:58:12;;;;;;;;;;;20.80;39.90;;;;;;694427;28;1311;-84
2022/01/17 01:58:32;;;;;;;;;;;20.80;39.80;;;;;;697830;28;1338;-85
2022/01/17 01:58:53;;;;;;;;;;;20.80;39.90;;;;;;697248;28;1370;-86
2022/01/17 01:59:14;;;;;;;;;;;20.80;39.80;;;;;;702287;28;817;-85
2022/01/17 01:59:37;;;;;;;;;;;20.80;39.80;;;;;;699213;28;1172;-86
2022/01/17 01:59:57;;;;;;;;;;;20.80;39.80;;;;;;696821;28;1203;-85
2022/01/17 02:00:18;;;;;;;;;;;20.80;39.80;;;;;;694603;28;1320;-82
2022/01/17 02:00:39;;;;;;;;;;;20.80;39.70;;;;;;693187;28;1299;-86
2022/01/17 02:01:00;;;;;;;;;;;20.80;39.70;;;;;;694125;28;822;-87
2022/01/17 02:01:20;;;;;;;;;;;20.80;39.70;;;;;;694779;28;893;-82
2022/01/17 02:01:41;;;;;;;;;;;20.80;39.70;;;;;;697122;28;786;-84
2022/01/17 02:02:02;;;;;;;;;;;20.80;39.70;;;;;;699876;28;886;-84
2022/01/17 02:02:23;;;;;;;;;;;20.80;39.70;;;;;;702770;28;829;-85
2022/01/17 02:02:43;;;;;;;;;;;20.80;39.70;;;;;;702244;28;889;-83
2022/01/17 02:03:04;;;;;;;;;;;20.80;39.70;;;;;;699410;28;917;-82
2022/01/17 02:03:25;;;;;;;;;;;20.80;39.70;;;;;;699485;28;1186;-86
2022/01/17 02:03:46;;;;;;;;;;;20.80;39.80;;;;;;696231;28;1196;-82
2022/01/17 02:04:06;;;;;;;;;;;20.70;39.60;;;;;;696168;28;1496;-81
2022/01/17 02:04:27;;;;;;;;;;;20.80;39.70;;;;;;697085;28;861;-82
2022/01/17 02:04:47;;;;;;;;;;;20.80;39.70;;;;;;699536;28;810;-83
2022/01/17 02:05:08;;;;;;;;;;;20.70;39.60;;;;;;699706;28;783;-84
2022/01/17 02:05:29;;;;;;;;;;;20.70;39.60;;;;;;699383;28;1376;-82
2022/01/17 02:05:49;;;;;;;;;;;20.70;39.60;;;;;;699765;28;790;-83
2022/01/17 02:06:10;;;;;;;;;;;20.80;39.70;;;;;;702174;28;1329;-84
2022/01/17 02:06:34;;;;;;;;;;;20.70;39.60;;;;;;702478;28;825;-84
2022/01/17 02:06:54;;;;;;;;;;;20.70;39.60;;;;;;702366;28;790;-80
2022/01/17 02:07:15;;;;;;;;;;;20.80;39.70;;;;;;700009;28;1379;-79
2022/01/17 02:07:36;;;;;;;;;;;20.70;39.60;;;;;;702282;28;810;-85
2022/01/17 02:07:57;;;;;;;;;;;20.80;39.70;;;;;;702059;28;1300;-82
2022/01/17 02:08:17;;;;;;;;;;;20.70;39.60;;;;;;702156;28;964;-83
2022/01/17 02:08:38;;;;;;;;;;;20.70;39.50;;;;;;702264;28;810;-84
2022/01/17 02:09:00;;;;;;;;;;;20.70;39.60;;;;;;702730;28;884;-83
2022/01/17 02:09:23;;;;;;;;;;;20.70;39.70;;;;;;701492;28;1109;-84
2022/01/17 02:09:44;;;;;;;;;;;20.70;39.60;;;;;;702265;28;849;-84
2022/01/17 02:10:05;;;;;;;;;;;20.70;39.60;;;;;;699054;28;936;-85
2022/01/17 02:10:25;;;;;;;;;;;20.70;39.50;;;;;;699090;28;1464;-84
2022/01/17 02:10:46;;;;;;;;;;;20.70;39.50;;;;;;699531;28;821;-84
2022/01/17 02:11:10;;;;;;;;;;;20.70;39.60;;;;;;697228;28;1101;-84
2022/01/17 02:11:35;;;;;;;;;;;20.70;39.50;;;;;;699541;28;751;-84
2022/01/17 02:11:55;;;;;;;;;;;20.70;39.60;;;;;;699741;28;818;-84
2022/01/17 02:12:20;;;;;;;;;;;20.70;39.50;;;;;;698100;28;1343;-82
2022/01/17 02:12:41;;;;;;;;;;;20.70;39.50;;;;;;699391;28;1205;-82
2022/01/17 02:13:02;;;;;;;;;;;20.70;39.50;;;;;;698701;28;1367;-84
2022/01/17 02:13:22;;;;;;;;;;;20.70;39.50;;;;;;699457;28;877;-83
2022/01/17 02:13:43;;;;;;;;;;;20.70;39.40;;;;;;699357;28;1901;-84
2022/01/17 02:14:04;;;;;;;;;;;20.70;39.40;;;;;;695656;28;1236;-83
2022/01/17 02:14:25;;;;;;;;;;;20.70;39.40;;;;;;697178;28;791;-81
2022/01/17 02:14:45;;;;;;;;;;;20.70;39.50;;;;;;696395;28;1386;-83
2022/01/17 02:15:10;;;;;;;;;;;20.70;39.40;;;;;;699407;28;814;-84
2022/01/17 02:15:31;;;;;;;;;;;20.70;39.50;;;;;;696504;28;1582;-84
2022/01/17 02:16:14;;;;;;;;;;;20.70;39.50;;;;;;697633;28;936;-82
2022/01/17 02:16:37;;;;;;;;;;;20.70;39.50;;;;;;700597;28;881;-84
2022/01/17 02:17:01;;;;;;;;;;;20.70;39.60;;;;;;702219;28;972;-84
2022/01/17 02:17:24;;;;;;;;;;;20.70;39.50;;;;;;700597;28;1408;-84
2022/01/17 02:17:54;;;;;;;;;;;20.70;39.50;;;;;;699256;28;1283;-82
2022/01/17 02:18:22;;;;;;;;;;;20.70;39.40;;;;;;696550;28;934;-82
2022/01/17 02:18:43;;;;;;;;;;;20.70;39.40;;;;;;693656;28;1405;-81
2022/01/17 02:19:04;;;;;;;;;;;20.70;39.50;;;;;;693969;28;1322;-84
2022/01/17 02:19:25;;;;;;;;;;;20.70;39.40;;;;;;693966;28;1205;-81
2022/01/17 02:19:49;;;;;;;;;;;20.70;39.40;;;;;;693871;28;1377;-83
2022/01/17 02:20:13;;;;;;;;;;;20.70;39.30;;;;;;695955;28;854;-83
2022/01/17 02:20:45;;;;;;;;;;;20.70;39.40;;;;;;695105;28;1104;-84
2022/01/17 02:21:47;;;;;;;;;;;20.70;39.40;;;;;;697841;28;676;-81
2022/01/17 02:22:11;;;;;;;;;;;20.70;39.40;;;;;;696646;28;1243;-81
2022/01/17 02:22:32;;;;;;;;;;;20.70;39.30;;;;;;699133;28;897;-84
2022/01/17 02:22:56;;;;;;;;;;;20.70;39.30;;;;;;700086;28;802;-84
2022/01/17 02:23:17;;;;;;;;;;;20.70;39.30;;;;;;699414;28;1326;-82
2022/01/17 02:23:39;;;;;;;;;;;20.70;39.30;;;;;;699335;28;813;-83
2022/01/17 02:24:00;;;;;;;;;;;20.70;39.30;;;;;;698152;28;1164;-81
2022/01/17 02:24:21;;;;;;;;;;;20.70;39.30;;;;;;696530;28;1369;-82
2022/01/17 02:24:42;;;;;;;;;;;20.70;39.30;;;;;;696626;28;798;-83
2022/01/17 02:25:03;;;;;;;;;;;20.70;39.30;;;;;;697407;28;798;-83
2022/01/17 02:25:23;;;;;;;;;;;20.70;39.30;;;;;;699487;28;981;-84
2022/01/17 02:25:44;;;;;;;;;;;20.70;39.30;;;;;;699954;28;924;-83
2022/01/17 02:26:05;;;;;;;;;;;20.70;39.30;;;;;;701224;28;1475;-82
2022/01/17 02:26:26;;;;;;;;;;;20.70;39.10;;;;;;701584;28;1442;-82
2022/01/17 02:26:47;;;;;;;;;;;20.70;39.20;;;;;;699426;28;1477;-83
2022/01/17 02:27:08;;;;;;;;;;;20.70;39.30;;;;;;696499;28;1262;-82
2022/01/17 02:27:28;;;;;;;;;;;20.70;39.20;;;;;;696783;28;814;-83
2022/01/17 02:27:49;;;;;;;;;;;20.60;39.20;;;;;;694268;28;1227;-85
2022/01/17 02:28:09;;;;;;;;;;;20.70;39.30;;;;;;696108;28;1481;-82
2022/01/17 02:28:33;;;;;;;;;;;20.60;39.10;;;;;;697155;28;794;-84
2022/01/17 02:28:55;;;;;;;;;;;20.70;39.20;;;;;;700274;28;810;-83
2022/01/17 02:29:15;;;;;;;;;;;20.70;39.20;;;;;;702302;28;786;-83
2022/01/17 02:29:36;;;;;;;;;;;20.70;39.30;;;;;;702284;28;825;-83
2022/01/17 02:29:56;;;;;;;;;;;20.60;39.10;;;;;;699509;28;1491;-83
2022/01/17 02:30:21;;;;;;;;;;;20.70;39.20;;;;;;698490;28;925;-83